Time;durP1;ratioP1;P1;durP2;ratioP2;P2;SDS_P1;SDS_P2;PMS_P1;PMS_P2;Temp;Humidity;BMP_temperature;BMP_pressure;BME280_temperature;BME280_humidity;BME280_pressure;Samples;Min_cycle;Max_cycle;Signal;HPM_P1;HPM_P2
2021/01/31 00:01:34;;;;;;;94.47;66.57;;;;;;;;;;5029925;28;20033;-52
2021/01/31 00:04:00;;;;;;;80.60;59.50;;;;;;;;;;5030173;28;20045;-51
2021/01/31 00:06:26;;;;;;;92.90;65.73;;;;;;;;;;5043251;28;20498;-50
2021/01/31 00:08:52;;;;;;;83.27;63.37;;;;;;;;;;5045653;28;20557;-54
2021/01/31 00:11:18;;;;;;;102.53;71.60;;;;;;;;;;5036498;28;20065;-52
2021/01/31 00:13:45;;;;;;;88.10;64.50;;;;;;;;;;5032094;28;20037;-52
2021/01/31 00:16:12;;;;;;;92.17;65.97;;;;;;;;;;5033657;28;20096;-51
2021/01/31 00:18:38;;;;;;;87.00;59.00;;;;;;;;;;5040029;28;20375;-52
2021/01/31 00:21:04;;;;;;;99.03;69.40;;;;;;;;;;5046284;28;20037;-51
2021/01/31 00:23:30;;;;;;;82.10;58.03;;;;;;;;;;5043238;28;20437;-53
2021/01/31 00:25:56;;;;;;;79.27;57.73;;;;;;;;;;5033504;28;20525;-52
2021/01/31 00:28:24;;;;;;;96.63;66.83;;;;;;;;;;5022746;28;20044;-53
2021/01/31 00:30:50;;;;;;;88.80;64.10;;;;;;;;;;5032530;28;20539;-51
2021/01/31 00:33:19;;;;;;;88.73;65.47;;;;;;;;;;5037146;28;20108;-55
2021/01/31 00:35:45;;;;;;;95.83;66.93;;;;;;;;;;5041447;28;20170;-54
2021/01/31 00:38:13;;;;;;;94.83;67.17;;;;;;;;;;5061491;28;20379;-52
2021/01/31 00:40:39;;;;;;;93.10;65.17;;;;;;;;;;5046701;28;20126;-50
2021/01/31 00:43:06;;;;;;;78.33;58.77;;;;;;;;;;5043649;28;20091;-52
2021/01/31 00:45:31;;;;;;;83.03;59.63;;;;;;;;;;5047741;28;20128;-50
2021/01/31 00:47:58;;;;;;;94.80;64.23;;;;;;;;;;5040285;28;20040;-55
2021/01/31 00:50:27;;;;;;;81.50;62.43;;;;;;;;;;5042440;28;20091;-53
2021/01/31 00:52:53;;;;;;;78.90;57.40;;;;;;;;;;5037355;28;20034;-59
2021/01/31 00:55:19;;;;;;;85.60;58.53;;;;;;;;;;5039465;28;20116;-53
2021/01/31 00:57:45;;;;;;;74.07;54.63;;;;;;;;;;5044604;28;20040;-54
2021/01/31 01:00:12;;;;;;;80.43;56.03;;;;;;;;;;5041081;28;20111;-53
2021/01/31 01:02:38;;;;;;;75.37;56.30;;;;;;;;;;5047469;28;20116;-52
2021/01/31 01:05:04;;;;;;;84.30;60.57;;;;;;;;;;5032098;28;20112;-50
2021/01/31 01:07:30;;;;;;;81.17;57.40;;;;;;;;;;5034014;28;20037;-53
2021/01/31 01:09:56;;;;;;;84.27;61.17;;;;;;;;;;5020809;28;20048;-53
2021/01/31 01:12:22;;;;;;;83.90;60.20;;;;;;;;;;5037151;28;20041;-53
2021/01/31 01:14:48;;;;;;;83.53;58.63;;;;;;;;;;5041162;28;20803;-51
2021/01/31 01:17:14;;;;;;;72.93;53.97;;;;;;;;;;5036576;28;20443;-55
2021/01/31 01:19:39;;;;;;;81.20;58.53;;;;;;;;;;5024237;28;20053;-54
2021/01/31 01:22:05;;;;;;;82.67;58.57;;;;;;;;;;5038453;28;20052;-56
2021/01/31 01:24:31;;;;;;;90.47;63.20;;;;;;;;;;5041597;28;20049;-53
2021/01/31 01:26:58;;;;;;;85.13;62.73;;;;;;;;;;5047057;28;20033;-54
2021/01/31 01:29:24;;;;;;;77.73;58.40;;;;;;;;;;5036106;28;20120;-50
2021/01/31 01:31:50;;;;;;;78.60;58.50;;;;;;;;;;5044553;28;20053;-56
2021/01/31 01:34:16;;;;;;;83.17;59.93;;;;;;;;;;5043807;28;20041;-51
2021/01/31 01:36:42;;;;;;;82.50;59.13;;;;;;;;;;5029898;28;20044;-51
2021/01/31 01:39:08;;;;;;;78.67;58.53;;;;;;;;;;5038196;28;20143;-52
2021/01/31 01:41:38;;;;;;;73.03;53.47;;;;;;;;;;5023725;28;20483;-51
2021/01/31 01:44:04;;;;;;;79.73;58.27;;;;;;;;;;5023918;28;20494;-50
2021/01/31 01:46:36;;;;;;;81.50;57.83;;;;;;;;;;5021596;28;20041;-53
2021/01/31 01:49:08;;;;;;;72.03;53.93;;;;;;;;;;5026299;28;20037;-52
2021/01/31 01:51:53;;;;;;;74.90;54.17;;;;;;;;;;5033960;28;20040;-52
2021/01/31 01:54:25;;;;;;;80.38;58.25;;;;;;;;;;5028293;28;20034;-53
2021/01/31 01:56:55;;;;;;;78.73;56.17;;;;;;;;;;5019513;28;20084;-53
2021/01/31 01:59:21;;;;;;;72.70;52.53;;;;;;;;;;5026451;28;20490;-54
2021/01/31 02:01:53;;;;;;;60.53;46.13;;;;;;;;;;5042441;28;20475;-50
2021/01/31 02:04:19;;;;;;;79.97;57.17;;;;;;;;;;5033203;28;20039;-50
2021/01/31 02:06:45;;;;;;;63.30;47.90;;;;;;;;;;5037789;28;20033;-51
2021/01/31 02:09:11;;;;;;;72.03;52.97;;;;;;;;;;5036149;28;20075;-54
2021/01/31 02:11:37;;;;;;;66.47;49.13;;;;;;;;;;5039484;28;20044;-53
2021/01/31 02:14:06;;;;;;;68.03;50.23;;;;;;;;;;5035890;28;20037;-54
2021/01/31 02:16:52;;;;;;;79.63;56.03;;;;;;;;;;5041761;28;20041;-53
2021/01/31 02:19:31;;;;;;;73.13;54.00;;;;;;;;;;5043173;28;20041;-53
2021/01/31 02:22:15;;;;;;;76.33;54.37;;;;;;;;;;5043386;28;20036;-55
2021/01/31 02:24:45;;;;;;;69.00;50.00;;;;;;;;;;5045200;28;20405;-52
2021/01/31 02:27:16;;;;;;;71.63;53.13;;;;;;;;;;5041596;28;20033;-55
2021/01/31 02:29:51;;;;;;;70.00;50.77;;;;;;;;;;5046401;28;20044;-53
2021/01/31 02:32:20;;;;;;;61.67;45.20;;;;;;;;;;5040287;28;20517;-55
2021/01/31 02:34:55;;;;;;;64.57;47.07;;;;;;;;;;5043148;28;20086;-54
2021/01/31 02:37:24;;;;;;;70.27;50.73;;;;;;;;;;5026616;28;20072;-52
2021/01/31 02:40:02;;;;;;;74.53;51.97;;;;;;;;;;5045050;28;20115;-53
2021/01/31 02:42:31;;;;;;;79.27;56.40;;;;;;;;;;5014270;28;20116;-50
2021/01/31 02:45:12;;;;;;;69.23;50.03;;;;;;;;;;5040841;28;20394;-52
2021/01/31 02:47:47;;;;;;;73.90;51.80;;;;;;;;;;5041484;28;20578;-55
2021/01/31 02:50:18;;;;;;;70.70;53.43;;;;;;;;;;5039134;28;20502;-55
2021/01/31 02:52:46;;;;;;;72.83;53.97;;;;;;;;;;5037716;28;20147;-51
2021/01/31 02:55:19;;;;;;;81.10;58.63;;;;;;;;;;5028789;28;20445;-55
2021/01/31 02:58:03;;;;;;;80.87;57.50;;;;;;;;;;5037282;28;20037;-54
2021/01/31 03:00:56;;;;;;;67.32;50.92;;;;;;;;;;4998221;28;20507;-55
2021/01/31 03:03:42;;;;;;;69.60;52.83;;;;;;;;;;5034739;28;20029;-52
2021/01/31 03:06:11;;;;;;;86.83;60.20;;;;;;;;;;5005705;28;20041;-52
2021/01/31 03:08:39;;;;;;;83.30;58.70;;;;;;;;;;5038198;28;21023;-50
2021/01/31 03:11:09;;;;;;;88.23;64.47;;;;;;;;;;5042628;28;20041;-51
2021/01/31 03:13:36;;;;;;;73.63;54.90;;;;;;;;;;5035016;28;20064;-53
2021/01/31 03:16:08;;;;;;;74.40;54.20;;;;;;;;;;5038237;28;20045;-55
2021/01/31 03:18:38;;;;;;;74.80;55.13;;;;;;;;;;5040446;28;20033;-55
2021/01/31 03:21:25;;;;;;;70.93;50.27;;;;;;;;;;5043494;28;20052;-56
2021/01/31 03:24:08;;;;;;;76.70;54.80;;;;;;;;;;5024008;28;20076;-55
2021/01/31 03:26:39;;;;;;;83.90;56.67;;;;;;;;;;5017534;28;20055;-54
2021/01/31 03:29:05;;;;;;;63.30;48.87;;;;;;;;;;5040963;28;20417;-51
2021/01/31 03:31:32;;;;;;;86.83;61.27;;;;;;;;;;5043286;28;20040;-55
2021/01/31 03:34:02;;;;;;;74.43;52.40;;;;;;;;;;5045731;28;20514;-50
2021/01/31 03:36:29;;;;;;;63.20;45.90;;;;;;;;;;5033796;28;20056;-54
2021/01/31 03:38:55;;;;;;;66.87;48.80;;;;;;;;;;5029379;28;21424;-53
2021/01/31 03:41:23;;;;;;;73.60;52.07;;;;;;;;;;5025538;28;20047;-53
2021/01/31 03:43:49;;;;;;;67.57;49.33;;;;;;;;;;5035132;28;20041;-54
2021/01/31 03:46:19;;;;;;;61.27;45.83;;;;;;;;;;5037497;28;20056;-56
2021/01/31 03:48:52;;;;;;;62.77;43.53;;;;;;;;;;5031537;28;20068;-54
2021/01/31 03:51:18;;;;;;;66.50;47.37;;;;;;;;;;5025837;28;20474;-53
2021/01/31 03:53:44;;;;;;;66.27;48.10;;;;;;;;;;5040832;28;20049;-56
2021/01/31 03:56:13;;;;;;;67.73;47.63;;;;;;;;;;5041376;28;20056;-52
2021/01/31 03:58:40;;;;;;;67.47;49.20;;;;;;;;;;5044639;28;20041;-53
2021/01/31 04:01:06;;;;;;;70.13;49.47;;;;;;;;;;5031471;28;20507;-54
2021/01/31 04:03:38;;;;;;;50.90;38.93;;;;;;;;;;5046497;28;20099;-52
2021/01/31 04:06:09;;;;;;;54.73;40.73;;;;;;;;;;5026972;28;20470;-51
2021/01/31 04:08:36;;;;;;;56.73;42.40;;;;;;;;;;5043879;28;20044;-55
2021/01/31 04:11:02;;;;;;;55.43;41.23;;;;;;;;;;5044207;28;20148;-52
2021/01/31 04:13:29;;;;;;;55.17;40.03;;;;;;;;;;5040717;28;20103;-54
2021/01/31 04:15:57;;;;;;;56.60;42.23;;;;;;;;;;5044153;28;20107;-53
2021/01/31 04:18:23;;;;;;;58.40;43.00;;;;;;;;;;5047523;28;20064;-52
2021/01/31 04:20:50;;;;;;;60.30;42.97;;;;;;;;;;5024768;28;20041;-54
2021/01/31 04:23:16;;;;;;;58.30;43.20;;;;;;;;;;5032627;28;20045;-54
2021/01/31 04:25:42;;;;;;;67.33;46.30;;;;;;;;;;5048647;28;20063;-52
2021/01/31 04:28:13;;;;;;;48.67;36.27;;;;;;;;;;5038682;28;20056;-55
2021/01/31 04:30:39;;;;;;;56.83;40.87;;;;;;;;;;5045288;28;20037;-53
2021/01/31 04:33:06;;;;;;;52.13;38.70;;;;;;;;;;5030779;28;20415;-55
2021/01/31 04:35:32;;;;;;;53.53;40.20;;;;;;;;;;5045909;28;20471;-54
2021/01/31 04:37:58;;;;;;;48.97;37.53;;;;;;;;;;5044075;28;20033;-54
2021/01/31 04:40:24;;;;;;;51.77;37.43;;;;;;;;;;5048480;28;20121;-56
2021/01/31 04:42:50;;;;;;;63.43;44.83;;;;;;;;;;5034655;28;20072;-55
2021/01/31 04:45:17;;;;;;;64.07;47.90;;;;;;;;;;5048498;28;20506;-50
2021/01/31 04:48:03;;;;;;;60.83;47.43;;;;;;;;;;5034360;28;20372;-51
2021/01/31 04:50:33;;;;;;;62.53;46.80;;;;;;;;;;5001631;28;20033;-52
2021/01/31 04:53:07;;;;;;;66.23;46.37;;;;;;;;;;5043261;28;20037;-54
2021/01/31 04:55:33;;;;;;;58.67;44.57;;;;;;;;;;5048334;28;20119;-50
2021/01/31 04:58:02;;;;;;;57.20;42.20;;;;;;;;;;5034557;28;20033;-54
2021/01/31 05:00:31;;;;;;;57.57;42.87;;;;;;;;;;5028725;28;20025;-51
2021/01/31 05:03:02;;;;;;;66.03;46.50;;;;;;;;;;5043633;28;20033;-52
2021/01/31 05:05:32;;;;;;;57.90;43.10;;;;;;;;;;5048448;28;20041;-53
2021/01/31 05:07:59;;;;;;;57.87;43.43;;;;;;;;;;5042063;28;20098;-51
2021/01/31 05:10:26;;;;;;;59.63;44.10;;;;;;;;;;5035537;28;20037;-51
2021/01/31 05:12:58;;;;;;;56.40;42.83;;;;;;;;;;5038853;28;20064;-52
2021/01/31 05:15:25;;;;;;;56.83;43.87;;;;;;;;;;5043428;28;20144;-53
2021/01/31 05:17:53;;;;;;;61.20;45.30;;;;;;;;;;5045216;28;20037;-55
2021/01/31 05:20:23;;;;;;;61.63;45.27;;;;;;;;;;5040898;28;20029;-54
2021/01/31 05:22:51;;;;;;;60.53;45.20;;;;;;;;;;5048143;28;21509;-54
2021/01/31 05:25:20;;;;;;;62.03;46.07;;;;;;;;;;5038742;28;20060;-56
2021/01/31 05:27:49;;;;;;;57.53;42.83;;;;;;;;;;5039784;28;20119;-56
2021/01/31 05:30:15;;;;;;;62.93;45.93;;;;;;;;;;5044169;28;20094;-54
2021/01/31 05:32:59;;;;;;;68.13;51.43;;;;;;;;;;5045874;28;20386;-50
2021/01/31 05:35:26;;;;;;;69.10;50.90;;;;;;;;;;5026629;28;20059;-55
2021/01/31 05:37:52;;;;;;;64.57;47.97;;;;;;;;;;5044640;28;20523;-54
2021/01/31 05:40:27;;;;;;;72.30;52.67;;;;;;;;;;5043145;28;20041;-53
2021/01/31 05:42:54;;;;;;;66.10;49.80;;;;;;;;;;5036627;28;20442;-51
2021/01/31 05:45:20;;;;;;;69.83;51.03;;;;;;;;;;5040292;28;20028;-54
2021/01/31 05:56:56;;;;;;;65.40;48.67;;;;;;;;;;4963285;28;20122;-53
2021/01/31 05:59:22;;;;;;;62.03;44.80;;;;;;;;;;5048081;28;20407;-51
2021/01/31 06:01:59;;;;;;;65.03;46.83;;;;;;;;;;5042788;28;20119;-50
2021/01/31 06:04:26;;;;;;;61.73;46.33;;;;;;;;;;5037569;28;20041;-54
2021/01/31 06:06:53;;;;;;;65.80;48.67;;;;;;;;;;5043817;28;20037;-55
2021/01/31 06:09:34;;;;;;;61.10;46.90;;;;;;;;;;5046085;28;20094;-52
2021/01/31 06:12:06;;;;;;;68.77;48.87;;;;;;;;;;5006183;28;20041;-53
2021/01/31 06:14:34;;;;;;;63.90;46.43;;;;;;;;;;5038832;28;20043;-52
2021/01/31 06:17:02;;;;;;;59.33;45.37;;;;;;;;;;5036366;28;20056;-51
2021/01/31 06:19:46;;;;;;;65.33;46.63;;;;;;;;;;5041210;28;20040;-54
2021/01/31 06:22:13;;;;;;;62.90;45.90;;;;;;;;;;5040152;28;20041;-54
2021/01/31 06:24:39;;;;;;;59.20;45.03;;;;;;;;;;5042467;28;20041;-51
2021/01/31 06:27:06;;;;;;;62.63;47.63;;;;;;;;;;5038547;28;20045;-55
2021/01/31 06:29:51;;;;;;;62.37;46.07;;;;;;;;;;5042311;28;20544;-52
2021/01/31 06:32:19;;;;;;;65.60;49.15;;;;;;;;;;5038609;28;20041;-52
2021/01/31 06:34:47;;;;;;;66.97;49.17;;;;;;;;;;5044031;28;20132;-51
2021/01/31 06:37:16;;;;;;;66.83;49.97;;;;;;;;;;5030142;28;20044;-52
2021/01/31 06:40:00;;;;;;;61.63;46.87;;;;;;;;;;5040825;28;20549;-55
2021/01/31 06:42:41;;;;;;;67.87;50.43;;;;;;;;;;5026721;28;20870;-54
2021/01/31 06:45:16;;;;;;;65.17;45.97;;;;;;;;;;5042622;28;20044;-51
2021/01/31 06:48:01;;;;;;;66.03;49.10;;;;;;;;;;5036297;28;20049;-52
2021/01/31 06:50:31;;;;;;;66.38;49.42;;;;;;;;;;5041423;28;20498;-52
2021/01/31 06:53:04;;;;;;;63.37;46.63;;;;;;;;;;5026762;28;20044;-55
2021/01/31 06:55:42;;;;;;;66.73;48.27;;;;;;;;;;5025185;28;20041;-54
2021/01/31 06:58:11;;;;;;;62.27;46.50;;;;;;;;;;5040571;28;20051;-54
2021/01/31 07:00:55;;;;;;;65.20;47.83;;;;;;;;;;5041035;28;20044;-55
2021/01/31 07:03:29;;;;;;;61.03;44.90;;;;;;;;;;5040898;28;20075;-54
2021/01/31 07:06:07;;;;;;;64.93;47.88;;;;;;;;;;5032820;28;20041;-56
2021/01/31 07:08:42;;;;;;;64.90;46.13;;;;;;;;;;5029872;28;20046;-54
2021/01/31 07:11:14;;;;;;;63.40;45.00;;;;;;;;;;5012094;28;20049;-55
2021/01/31 07:14:03;;;;;;;65.30;47.10;;;;;;;;;;5018871;28;20079;-55
2021/01/31 07:16:50;;;;;;;64.80;46.83;;;;;;;;;;5020620;28;20056;-56
2021/01/31 07:19:35;;;;;;;63.63;46.00;;;;;;;;;;5019084;28;20079;-55
2021/01/31 07:22:20;;;;;;;60.42;43.83;;;;;;;;;;5016551;28;20037;-56
2021/01/31 07:24:46;;;;;;;55.35;41.70;;;;;;;;;;5028519;28;20127;-56
2021/01/31 07:27:28;;;;;;;60.37;44.83;;;;;;;;;;5044804;28;20490;-50
2021/01/31 07:29:59;;;;;;;66.67;49.00;;;;;;;;;;5034744;28;20066;-55
2021/01/31 07:32:27;;;;;;;61.40;46.63;;;;;;;;;;5030728;28;20041;-52
2021/01/31 07:34:58;;;;;;;60.50;45.37;;;;;;;;;;5030834;28;20045;-51
2021/01/31 07:37:24;;;;;;;60.93;45.87;;;;;;;;;;5049167;28;20409;-55
2021/01/31 07:39:57;;;;;;;65.50;49.23;;;;;;;;;;5032819;28;20034;-51
2021/01/31 07:42:25;;;;;;;62.10;45.67;;;;;;;;;;5032231;28;20187;-55
2021/01/31 07:44:55;;;;;;;62.23;45.83;;;;;;;;;;5035193;28;20041;-52
2021/01/31 07:47:23;;;;;;;60.33;44.87;;;;;;;;;;5049686;28;20041;-53
2021/01/31 07:49:55;;;;;;;61.37;44.77;;;;;;;;;;5041242;28;20030;-56
2021/01/31 07:52:22;;;;;;;63.07;45.53;;;;;;;;;;5041762;28;20467;-54
2021/01/31 07:54:47;;;;;;;66.57;48.03;;;;;;;;;;5024547;28;20038;-53
2021/01/31 07:57:24;;;;;;;63.33;45.63;;;;;;;;;;5047988;28;20047;-53
2021/01/31 07:59:50;;;;;;;58.00;43.00;;;;;;;;;;5041213;28;20068;-53
2021/01/31 08:02:35;;;;;;;63.50;45.17;;;;;;;;;;5032696;28;20049;-56
2021/01/31 08:05:01;;;;;;;66.38;48.25;;;;;;;;;;5001084;28;22288;-54
2021/01/31 08:07:45;;;;;;;60.80;44.47;;;;;;;;;;5038680;28;20038;-56
2021/01/31 08:10:11;;;;;;;59.25;44.47;;;;;;;;;;5044704;28;20041;-54
2021/01/31 08:12:57;;;;;;;62.13;46.03;;;;;;;;;;5045899;28;20394;-54
2021/01/31 08:15:32;;;;;;;58.23;44.07;;;;;;;;;;5044667;28;20040;-53
2021/01/31 08:17:58;;;;;;;;;;;;;;;;;;5042924;28;20470;-55
2021/01/31 08:20:24;;;;;;;61.00;45.07;;;;;;;;;;5044608;28;20004;-52
2021/01/31 08:22:50;;;;;;;59.50;41.63;;;;;;;;;;5031730;28;20037;-55
2021/01/31 08:25:16;;;;;;;53.23;39.47;;;;;;;;;;5017101;28;20119;-54
2021/01/31 08:27:42;;;;;;;60.40;42.47;;;;;;;;;;5026959;28;20046;-55
2021/01/31 08:30:30;;;;;;;59.13;42.93;;;;;;;;;;5040659;28;20059;-54
2021/01/31 08:32:59;;;;;;;57.27;42.60;;;;;;;;;;5026252;28;20065;-55
2021/01/31 08:35:40;;;;;;;57.73;42.37;;;;;;;;;;5037254;28;20414;-56
2021/01/31 08:38:35;;;;;;;57.50;42.47;;;;;;;;;;5021694;28;20081;-55
2021/01/31 08:41:04;;;;;;;53.72;41.17;;;;;;;;;;5014335;28;20040;-56
2021/01/31 08:43:30;;;;;;;54.17;40.27;;;;;;;;;;5039314;28;20036;-53
2021/01/31 08:46:04;;;;;;;58.27;42.63;;;;;;;;;;5050901;28;20045;-54
2021/01/31 08:48:30;;;;;;;52.60;40.77;;;;;;;;;;5035157;28;20041;-54
2021/01/31 08:51:25;;;;;;;53.97;39.40;;;;;;;;;;5041554;28;20042;-58
2021/01/31 08:54:03;;;;;;;52.55;38.45;;;;;;;;;;5018170;28;20059;-54
2021/01/31 08:56:40;;;;;;;53.43;39.60;;;;;;;;;;5039947;28;20503;-56
2021/01/31 08:59:26;;;;;;;49.33;37.53;;;;;;;;;;5043401;28;20574;-56
2021/01/31 09:02:02;;;;;;;61.87;44.03;;;;;;;;;;5026910;28;20439;-55
2021/01/31 09:04:28;;;;;;;54.67;40.47;;;;;;;;;;5038516;28;20036;-51
2021/01/31 09:07:00;;;;;;;53.07;39.43;;;;;;;;;;5045123;28;20103;-49
2021/01/31 09:09:27;;;;;;;50.53;37.20;;;;;;;;;;5042775;28;20115;-54
2021/01/31 09:11:55;;;;;;;48.17;35.57;;;;;;;;;;5044388;28;20056;-51
2021/01/31 09:14:25;;;;;;;47.80;36.37;;;;;;;;;;5038057;28;20037;-55
2021/01/31 09:17:21;;;;;;;43.97;35.13;;;;;;;;;;5044453;28;20602;-55
2021/01/31 09:19:47;;;;;;;40.40;32.47;;;;;;;;;;4970563;28;20467;-53
2021/01/31 09:22:16;;;;;;;48.23;35.73;;;;;;;;;;5035410;28;20490;-52
2021/01/31 09:24:42;;;;;;;42.63;32.50;;;;;;;;;;5040979;28;20479;-54
2021/01/31 09:27:09;;;;;;;44.40;33.53;;;;;;;;;;5046783;28;20036;-55
2021/01/31 09:29:35;;;;;;;43.70;32.17;;;;;;;;;;5038135;28;20052;-54
2021/01/31 09:32:24;;;;;;;44.97;33.47;;;;;;;;;;5044699;28;20386;-53
2021/01/31 09:34:52;;;;;;;45.27;35.23;;;;;;;;;;5036100;28;20041;-50
2021/01/31 09:37:26;;;;;;;47.57;34.77;;;;;;;;;;5024244;28;20415;-55
2021/01/31 09:39:54;;;;;;;44.72;34.50;;;;;;;;;;5027161;28;20124;-54
2021/01/31 09:42:20;;;;;;;52.27;36.43;;;;;;;;;;5033306;28;20037;-56
2021/01/31 09:44:52;;;;;;;43.10;31.57;;;;;;;;;;5029300;28;20394;-57
2021/01/31 09:47:20;;;;;;;43.23;33.17;;;;;;;;;;5046046;28;20095;-56
2021/01/31 09:49:50;;;;;;;38.63;29.77;;;;;;;;;;5043820;28;20045;-51
2021/01/31 09:52:16;;;;;;;48.80;35.63;;;;;;;;;;5040651;28;20049;-56
2021/01/31 09:54:42;;;;;;;38.17;31.07;;;;;;;;;;5025150;28;20034;-56
2021/01/31 09:57:17;;;;;;;48.17;35.33;;;;;;;;;;5054037;28;20065;-53
2021/01/31 09:59:43;;;;;;;45.93;35.07;;;;;;;;;;5041359;28;20041;-55
2021/01/31 10:02:11;;;;;;;45.97;33.57;;;;;;;;;;5039763;28;20037;-55
2021/01/31 10:04:38;;;;;;;46.17;36.67;;;;;;;;;;5040809;28;20502;-56
2021/01/31 10:07:07;;;;;;;46.93;35.97;;;;;;;;;;5042961;28;20045;-53
2021/01/31 10:09:35;;;;;;;44.87;34.10;;;;;;;;;;5037252;28;20449;-55
2021/01/31 10:12:16;;;;;;;41.17;31.90;;;;;;;;;;5031025;28;20034;-54
2021/01/31 10:14:46;;;;;;;39.80;32.93;;;;;;;;;;5027891;28;20509;-55
2021/01/31 10:17:12;;;;;;;43.63;34.83;;;;;;;;;;5037259;28;20057;-54
2021/01/31 10:19:38;;;;;;;45.50;35.87;;;;;;;;;;5038853;28;20398;-56
2021/01/31 10:22:09;;;;;;;52.70;39.60;;;;;;;;;;5040519;28;20517;-56
2021/01/31 10:24:35;;;;;;;42.53;33.60;;;;;;;;;;5043471;28;20033;-56
2021/01/31 10:27:07;;;;;;;48.30;36.57;;;;;;;;;;5034280;28;20068;-54
2021/01/31 10:29:33;;;;;;;46.50;36.17;;;;;;;;;;5039886;28;20465;-52
2021/01/31 10:32:18;;;;;;;49.23;36.43;;;;;;;;;;5035077;28;20457;-56
2021/01/31 10:34:44;;;;;;;47.65;36.30;;;;;;;;;;5033619;28;20071;-54
2021/01/31 10:37:20;;;;;;;39.30;32.23;;;;;;;;;;5033997;28;20080;-53
2021/01/31 10:39:47;;;;;;;40.47;31.27;;;;;;;;;;5043049;28;20051;-55
2021/01/31 10:42:14;;;;;;;44.43;33.53;;;;;;;;;;5042476;28;20056;-51
2021/01/31 10:44:40;;;;;;;44.37;34.67;;;;;;;;;;5027673;28;20076;-53
2021/01/31 10:47:06;;;;;;;45.70;34.80;;;;;;;;;;5021801;28;20033;-52
2021/01/31 10:49:32;;;;;;;50.40;36.97;;;;;;;;;;5045745;28;20033;-55
2021/01/31 10:51:58;;;;;;;45.93;36.67;;;;;;;;;;5026941;28;21376;-55
2021/01/31 10:54:24;;;;;;;50.13;39.77;;;;;;;;;;5035893;28;20084;-55
2021/01/31 10:56:50;;;;;;;51.60;38.97;;;;;;;;;;5034271;28;20052;-55
2021/01/31 10:59:16;;;;;;;50.20;37.53;;;;;;;;;;5041919;28;20482;-50
2021/01/31 11:01:47;;;;;;;46.85;36.97;;;;;;;;;;5024025;28;20025;-52
2021/01/31 11:04:14;;;;;;;54.50;39.63;;;;;;;;;;5045783;28;20045;-53
2021/01/31 11:06:40;;;;;;;47.70;37.57;;;;;;;;;;5045413;28;20532;-53
2021/01/31 11:09:06;;;;;;;49.63;36.43;;;;;;;;;;5043689;28;20095;-53
2021/01/31 11:11:32;;;;;;;51.13;38.03;;;;;;;;;;5038173;28;20039;-52
2021/01/31 11:13:58;;;;;;;44.50;35.77;;;;;;;;;;5040519;28;20041;-56
2021/01/31 11:16:24;;;;;;;45.10;35.97;;;;;;;;;;5046480;28;20103;-55
2021/01/31 11:18:50;;;;;;;44.93;35.43;;;;;;;;;;5043692;28;20071;-55
2021/01/31 11:21:19;;;;;;;48.30;36.10;;;;;;;;;;5038123;28;20129;-56
2021/01/31 11:23:46;;;;;;;52.27;39.13;;;;;;;;;;5031768;28;20491;-56
2021/01/31 11:26:12;;;;;;;43.37;35.63;;;;;;;;;;5034551;28;20043;-51
2021/01/31 11:28:38;;;;;;;39.93;30.63;;;;;;;;;;5026767;28;20042;-56
2021/01/31 11:31:04;;;;;;;36.25;27.70;;;;;;;;;;5042352;28;20533;-56
2021/01/31 11:33:30;;;;;;;37.70;29.30;;;;;;;;;;5022505;28;20038;-56
2021/01/31 11:35:56;;;;;;;37.57;28.90;;;;;;;;;;5040510;28;20044;-61
2021/01/31 11:38:22;;;;;;;34.20;27.37;;;;;;;;;;5042086;28;20072;-57
2021/01/31 11:40:48;;;;;;;32.22;26.05;;;;;;;;;;5026430;28;20045;-57
2021/01/31 11:43:14;;;;;;;33.47;25.17;;;;;;;;;;5046441;28;20048;-57
2021/01/31 11:45:40;;;;;;;33.83;26.53;;;;;;;;;;5052394;28;20052;-58
2021/01/31 11:48:06;;;;;;;30.47;24.37;;;;;;;;;;5049472;28;20048;-57
2021/01/31 11:50:32;;;;;;;27.37;21.60;;;;;;;;;;5044964;28;20479;-53
2021/01/31 11:52:58;;;;;;;24.33;19.80;;;;;;;;;;5044178;28;20060;-56
2021/01/31 11:55:24;;;;;;;28.10;21.87;;;;;;;;;;5041203;28;20037;-56
2021/01/31 11:57:50;;;;;;;23.10;17.43;;;;;;;;;;5050967;28;20088;-57
2021/01/31 12:00:17;;;;;;;16.73;13.25;;;;;;;;;;5044296;28;20518;-57
2021/01/31 12:02:43;;;;;;;17.27;12.93;;;;;;;;;;5048968;28;20068;-56
2021/01/31 12:05:11;;;;;;;17.85;15.15;;;;;;;;;;5044690;28;20060;-56
2021/01/31 12:07:38;;;;;;;22.33;16.70;;;;;;;;;;5046620;28;20095;-57
2021/01/31 12:10:04;;;;;;;18.13;15.32;;;;;;;;;;5035072;28;20040;-57
2021/01/31 12:12:30;;;;;;;23.60;17.77;;;;;;;;;;5050097;28;20117;-56
2021/01/31 12:14:56;;;;;;;20.10;16.47;;;;;;;;;;5045414;28;20067;-61
2021/01/31 12:17:22;;;;;;;19.75;15.73;;;;;;;;;;5044936;28;20516;-58
2021/01/31 12:19:48;;;;;;;18.55;16.55;;;;;;;;;;5026672;28;20119;-57
2021/01/31 12:22:14;;;;;;;17.85;14.60;;;;;;;;;;5038857;28;20080;-57
2021/01/31 12:24:40;;;;;;;20.20;16.70;;;;;;;;;;5037865;28;20041;-57
2021/01/31 12:27:06;;;;;;;17.40;15.40;;;;;;;;;;5039579;28;20041;-57
2021/01/31 12:29:33;;;;;;;18.05;15.07;;;;;;;;;;5044470;28;20143;-57
2021/01/31 12:31:59;;;;;;;21.35;15.55;;;;;;;;;;5037898;28;20041;-57
2021/01/31 12:34:25;;;;;;;16.35;13.65;;;;;;;;;;5043946;28;20033;-57
2021/01/31 12:36:51;;;;;;;16.50;14.30;;;;;;;;;;5032486;28;20455;-58
2021/01/31 12:39:17;;;;;;;20.88;15.30;;;;;;;;;;5040004;28;20061;-58
2021/01/31 12:41:43;;;;;;;19.08;15.75;;;;;;;;;;5040076;28;20037;-58
2021/01/31 12:44:09;;;;;;;22.90;18.08;;;;;;;;;;5047164;28;20033;-58
2021/01/31 12:46:35;;;;;;;22.25;17.52;;;;;;;;;;5040809;28;20040;-57
2021/01/31 12:49:01;;;;;;;19.58;17.17;;;;;;;;;;5040234;28;20092;-58
2021/01/31 12:51:28;;;;;;;17.42;14.98;;;;;;;;;;5040202;28;20037;-57
2021/01/31 12:53:54;;;;;;;9.88;7.60;;;;;;;;;;5043041;28;20094;-58
2021/01/31 12:56:20;;;;;;;10.05;8.30;;;;;;;;;;5044078;28;20048;-57
2021/01/31 12:58:46;;;;;;;10.65;8.35;;;;;;;;;;5045265;28;20060;-54
2021/01/31 13:01:12;;;;;;;4.90;3.55;;;;;;;;;;5032732;28;20043;-59
2021/01/31 13:03:38;;;;;;;7.65;6.00;;;;;;;;;;5041515;28;20021;-58
2021/01/31 13:06:04;;;;;;;9.15;6.60;;;;;;;;;;5044440;28;20110;-56
2021/01/31 13:08:30;;;;;;;9.75;8.10;;;;;;;;;;5043482;28;20033;-57
2021/01/31 13:10:56;;;;;;;12.07;8.68;;;;;;;;;;5044707;28;20033;-61
2021/01/31 13:13:22;;;;;;;10.13;7.65;;;;;;;;;;5041281;28;20098;-57
2021/01/31 13:15:48;;;;;;;10.68;8.60;;;;;;;;;;5045613;28;20040;-57
2021/01/31 13:18:14;;;;;;;9.60;8.25;;;;;;;;;;5040743;28;20041;-58
2021/01/31 13:20:40;;;;;;;7.85;6.75;;;;;;;;;;5045713;28;20095;-58
2021/01/31 13:23:06;;;;;;;9.50;7.50;;;;;;;;;;5037961;28;20037;-58
2021/01/31 13:25:32;;;;;;;10.07;8.75;;;;;;;;;;5046011;28;20040;-59
2021/01/31 13:28:00;;;;;;;10.80;9.63;;;;;;;;;;5036528;28;20045;-58
2021/01/31 13:30:28;;;;;;;9.45;8.40;;;;;;;;;;5029297;28;20026;-58
2021/01/31 13:32:54;;;;;;;10.40;8.05;;;;;;;;;;5037125;28;20102;-57
2021/01/31 13:35:21;;;;;;;7.72;6.85;;;;;;;;;;5044401;28;20037;-57
2021/01/31 13:37:47;;;;;;;8.10;7.30;;;;;;;;;;5042737;28;20076;-58
2021/01/31 13:40:13;;;;;;;10.40;7.45;;;;;;;;;;5043922;28;20483;-58
2021/01/31 13:42:39;;;;;;;10.15;7.78;;;;;;;;;;5044176;28;20052;-59
2021/01/31 13:45:08;;;;;;;11.63;9.13;;;;;;;;;;5024430;28;20049;-59
2021/01/31 13:47:34;;;;;;;10.63;9.52;;;;;;;;;;5026028;28;20459;-58
2021/01/31 13:50:00;;;;;;;11.90;10.45;;;;;;;;;;5030145;28;20414;-58
2021/01/31 13:52:26;;;;;;;14.55;10.43;;;;;;;;;;5030984;28;20038;-58
2021/01/31 13:54:52;;;;;;;9.25;8.02;;;;;;;;;;5030369;28;20063;-58
2021/01/31 13:57:18;;;;;;;9.55;8.20;;;;;;;;;;5044752;28;20052;-58
2021/01/31 13:59:44;;;;;;;11.68;10.20;;;;;;;;;;5037263;28;20124;-56
2021/01/31 14:02:10;;;;;;;11.95;10.15;;;;;;;;;;5042774;28;20256;-55
2021/01/31 14:04:36;;;;;;;14.55;11.35;;;;;;;;;;5046851;28;20119;-58
2021/01/31 14:07:02;;;;;;;11.77;9.85;;;;;;;;;;5034144;28;20032;-59
2021/01/31 14:09:28;;;;;;;12.07;10.00;;;;;;;;;;5037580;28;20419;-54
2021/01/31 14:11:54;;;;;;;10.65;8.88;;;;;;;;;;5046692;28;20036;-56
2021/01/31 14:14:20;;;;;;;10.02;8.95;;;;;;;;;;5029566;28;20064;-58
2021/01/31 14:16:46;;;;;;;10.70;8.68;;;;;;;;;;5021780;28;22649;-57
2021/01/31 14:19:12;;;;;;;11.02;8.77;;;;;;;;;;5027694;28;20072;-58
2021/01/31 14:21:38;;;;;;;11.75;9.13;;;;;;;;;;5038771;28;20060;-54
2021/01/31 14:24:05;;;;;;;11.77;9.35;;;;;;;;;;5034650;28;20037;-54
2021/01/31 14:26:32;;;;;;;12.43;10.27;;;;;;;;;;5036062;28;20045;-58
2021/01/31 14:28:58;;;;;;;10.85;9.55;;;;;;;;;;5045472;28;20128;-54
2021/01/31 14:31:24;;;;;;;10.68;9.57;;;;;;;;;;5042176;28;20040;-58
2021/01/31 14:33:50;;;;;;;10.13;9.10;;;;;;;;;;5046472;28;20041;-57
2021/01/31 14:36:17;;;;;;;9.65;8.57;;;;;;;;;;5041353;28;20098;-56
2021/01/31 14:38:43;;;;;;;12.15;9.90;;;;;;;;;;5033978;28;20110;-55
2021/01/31 14:41:09;;;;;;;11.48;9.80;;;;;;;;;;5040741;28;20825;-57